createdAt,value
2019-06-20T00:00:06.187Z,97676.08
2019-06-20T00:02:36.412Z,97686.48
2019-06-20T00:05:07.725Z,97699.41
2019-06-20T00:20:57.781Z,97729.34
2019-06-20T00:23:29.206Z,97746.55
2019-06-20T00:26:00.573Z,97750.35
2019-06-20T00:28:32.289Z,97749.38
2019-06-20T00:31:02.792Z,97755.16
2019-06-20T00:33:34.714Z,97757.81
2019-06-20T00:36:06.103Z,97755.21
2019-06-20T00:38:37.594Z,97757.25
2019-06-20T00:41:08.924Z,97743.31
2019-06-20T00:43:39.499Z,97744.31
2019-06-20T00:46:10.029Z,97745.59
2019-06-20T00:48:40.767Z,97739.92
2019-06-20T00:51:11.166Z,97731.81
2019-06-20T00:53:41.589Z,97729.95
2019-06-20T00:56:11.870Z,97719.34
2019-06-20T00:58:42.456Z,97720.63
2019-06-20T01:01:12.779Z,97723.44
2019-06-20T01:03:43.072Z,97731.28
2019-06-20T01:06:13.610Z,97731.40
2019-06-20T01:08:43.904Z,97734.02
2019-06-20T01:11:14.143Z,97735.91
2019-06-20T01:13:44.429Z,97739.89
2019-06-20T01:16:14.902Z,97744.45
2019-06-20T01:18:45.252Z,97748.15
2019-06-20T01:21:16.860Z,97735.63
2019-06-20T01:23:47.160Z,97743.56
2019-06-20T01:26:17.413Z,97739.89
2019-06-20T01:28:48.672Z,97740.27
2019-06-20T01:31:20.419Z,97737.80
2019-06-20T01:33:50.789Z,97740.27
2019-06-20T01:36:21.029Z,97742.02
2019-06-20T01:38:51.641Z,97743.56
2019-06-20T01:41:22.277Z,97744.14
2019-06-20T01:43:52.568Z,97739.05
2019-06-20T01:46:22.904Z,97735.75
2019-06-20T01:48:53.249Z,97731.66
2019-06-20T01:53:13.051Z,97740.09
2019-06-20T01:56:02.390Z,97750.76
2019-06-20T01:58:51.627Z,97758.34
2019-06-20T02:01:40.908Z,97771.41
2019-06-20T02:04:30.423Z,97776.80
2019-06-20T02:07:19.730Z,97776.41
2019-06-20T02:09:50.024Z,97773.41
2019-06-20T02:12:20.595Z,97764.16
2019-06-20T02:14:50.958Z,97757.61
2019-06-20T02:17:21.272Z,97761.63
2019-06-20T02:19:51.581Z,97752.70
2019-06-20T02:22:40.845Z,97747.76
2019-06-20T02:25:30.150Z,97741.15
2019-06-20T02:28:00.449Z,97738.31
2019-06-20T02:30:31.183Z,97733.34
2019-06-20T02:33:01.499Z,97734.73
2019-06-20T02:35:51.059Z,97737.53
2019-06-20T02:38:40.383Z,97736.70
2019-06-20T02:41:30.129Z,97737.66
2019-06-20T02:44:00.433Z,97733.64
2019-06-20T02:46:40.785Z,97735.28
2019-06-20T02:49:30.092Z,97735.77
2019-06-20T02:52:00.622Z,97743.22
2019-06-20T02:54:30.988Z,97752.80
2019-06-20T02:57:20.329Z,97756.77
2019-06-20T02:59:51.010Z,97760.55
2019-06-20T03:02:21.265Z,97755.90
2019-06-20T03:04:51.786Z,97759.87
2019-06-20T03:07:22.197Z,97756.58
2019-06-20T03:09:52.442Z,97757.83
2019-06-20T03:12:22.761Z,97760.28
2019-06-20T03:14:54.291Z,97762.64
2019-06-20T03:17:43.623Z,97758.06
2019-06-20T03:22:56.911Z,97770.58
2019-06-20T03:25:27.176Z,97770.93
2019-06-20T03:28:16.437Z,97770.25
2019-06-20T03:31:06.409Z,97783.86
2019-06-20T03:33:55.935Z,97783.02
2019-06-20T03:36:45.252Z,97786.16
2019-06-20T03:39:34.815Z,97796.53
2019-06-20T03:42:15.194Z,97801.47
2019-06-20T03:44:58.399Z,97809.11
2019-06-20T03:47:36.594Z,97816.77
2019-06-20T03:50:26.172Z,97822.77
2019-06-20T03:53:15.309Z,97835.05
2019-06-20T03:56:04.891Z,97835.41
2019-06-20T03:58:54.182Z,97727.70
2019-06-20T04:01:24.536Z,97816.31
2019-06-20T04:04:13.833Z,97863.32
2019-06-20T04:07:03.191Z,97873.97
2019-06-20T04:09:52.738Z,97866.41
2019-06-20T04:12:42.165Z,97869.87
2019-06-20T04:15:19.095Z,97880.20
2019-06-20T04:18:03.698Z,97889.19
2019-06-20T04:20:53.251Z,97887.66
2019-06-20T04:23:42.636Z,97878.62
2019-06-20T04:26:12.892Z,97871.91
2019-06-20T04:29:02.124Z,97861.25
2019-06-20T04:31:32.413Z,97850.96
2019-06-20T04:34:21.942Z,97834.79
2019-06-20T04:36:53.299Z,97826.02
2019-06-20T04:39:23.542Z,97817.77
2019-06-20T04:42:12.914Z,97815.13
2019-06-20T04:44:56.242Z,97794.38
2019-06-20T04:47:26.553Z,97752.73
2019-06-20T04:49:57.080Z,97727.07
2019-06-20T04:52:27.398Z,97732.45
2019-06-20T04:54:57.623Z,97775.87
2019-06-20T04:57:28.241Z,97817.11
2019-06-20T05:00:04.270Z,97827.13
2019-06-20T05:02:34.519Z,97828.45
2019-06-20T05:05:23.757Z,97819.69
2019-06-20T05:08:13.070Z,97825.05
2019-06-20T05:11:02.657Z,97823.38
2019-06-20T05:13:52.074Z,97673.59
2019-06-20T05:18:58.386Z,97821.10
2019-06-20T05:21:40.210Z,97824.78
2019-06-20T05:24:10.438Z,97827.78
2019-06-20T05:26:59.737Z,97828.27
2019-06-20T05:29:49.035Z,97831.59
2019-06-20T05:32:19.295Z,97823.38
2019-06-20T05:35:09.037Z,97827.81
2019-06-20T05:37:39.263Z,97831.37
2019-06-20T05:40:10.318Z,97824.20
2019-06-20T05:42:59.590Z,97819.88
2019-06-20T05:45:29.907Z,97810.70
2019-06-20T05:48:19.466Z,97804.09
2019-06-20T05:51:08.789Z,97805.97
2019-06-20T05:53:39.058Z,97802.77
2019-06-20T05:56:28.410Z,97794.84
2019-06-20T05:59:17.656Z,97788.78
2019-06-20T06:02:07.602Z,97787.56
2019-06-20T06:04:56.964Z,97787.76
2019-06-20T06:07:27.209Z,97794.08
2019-06-20T06:09:57.853Z,97797.47
2019-06-20T06:12:29.054Z,97804.08
2019-06-20T06:15:00.981Z,97805.21
2019-06-20T06:17:31.718Z,97806.15
2019-06-20T06:20:21.065Z,97799.20
2019-06-20T06:23:11.079Z,97804.19
2019-06-20T06:26:00.425Z,97764.45
2019-06-20T06:28:30.696Z,97804.63
2019-06-20T06:31:20.015Z,97811.50
2019-06-20T06:33:50.323Z,97814.45
2019-06-20T06:36:39.816Z,97814.39
2019-06-20T06:39:29.088Z,97815.17
2019-06-20T06:41:59.409Z,97808.49
2019-06-20T06:44:48.781Z,97814.98
2019-06-20T06:47:26.892Z,97815.39
2019-06-20T06:49:57.272Z,97816.10
2019-06-20T06:55:27.642Z,97826.76
2019-06-20T06:58:17.122Z,97830.95
2019-06-20T07:00:47.482Z,97834.41
2019-06-20T07:03:36.886Z,97833.78
2019-06-20T07:06:07.390Z,97831.97
2019-06-20T07:08:37.619Z,97826.64
2019-06-20T07:11:26.954Z,97825.72
2019-06-20T07:13:57.280Z,97822.84
2019-06-20T07:16:27.600Z,97821.72
2019-06-20T07:18:58.140Z,97822.23
2019-06-20T07:21:28.990Z,97831.89
2019-06-20T07:23:59.373Z,97830.89
2019-06-20T07:26:49.010Z,97839.22
2019-06-20T07:29:19.439Z,97837.42
2019-06-20T07:34:26.722Z,97839.61
2019-06-20T07:37:16.024Z,97838.81
2019-06-20T07:39:46.289Z,97839.29
2019-06-20T07:42:17.405Z,97843.00
2019-06-20T07:45:08.722Z,97844.36
2019-06-20T07:47:40.722Z,97851.97
2019-06-20T07:50:11.469Z,97851.97
2019-06-20T07:52:41.842Z,97852.79
2019-06-20T07:55:12.351Z,97850.62
2019-06-20T07:57:53.821Z,97847.78
2019-06-20T08:00:24.611Z,97845.91
2019-06-20T08:02:55.723Z,97847.41
2019-06-20T08:05:26.440Z,97849.14
2019-06-20T08:08:16.217Z,97858.92
2019-06-20T08:11:05.772Z,97858.92
2019-06-20T08:13:36.203Z,97863.20
2019-06-20T08:16:08.202Z,97864.23
2019-06-20T08:18:39.068Z,97863.84
2019-06-20T08:21:33.167Z,97861.50
2019-06-20T08:24:23.110Z,97852.86
2019-06-20T08:30:51.964Z,97858.20
2019-06-20T08:33:42.286Z,97866.59
2019-06-20T08:36:32.019Z,97837.53
2019-06-20T08:39:02.678Z,97874.76
2019-06-20T08:41:34.036Z,97867.70
2019-06-20T08:44:23.734Z,97872.88
2019-06-20T08:46:56.439Z,97875.09
2019-06-20T08:49:28.691Z,97861.63
2019-06-20T08:52:18.691Z,97857.22
2019-06-20T08:55:28.590Z,97867.09
2019-06-20T08:58:17.929Z,97868.17
2019-06-20T09:03:43.827Z,97866.97
2019-06-20T09:06:33.851Z,97870.34
2019-06-20T09:09:23.692Z,97868.45
2019-06-20T09:11:55.031Z,97862.36
2019-06-20T09:14:45.019Z,97861.72
2019-06-20T09:17:15.706Z,97860.05
2019-06-20T09:20:05.846Z,97865.88
2019-06-20T09:22:55.289Z,97861.52
2019-06-20T09:25:25.974Z,97865.06
2019-06-20T09:31:14.708Z,97863.52
2019-06-20T09:34:07.512Z,97864.42
2019-06-20T09:37:00.850Z,97871.89
2019-06-20T09:42:30.267Z,97875.91
2019-06-20T09:45:16.128Z,97870.02
2019-06-20T09:47:46.929Z,97870.24
2019-06-20T09:50:18.174Z,97877.23
2019-06-20T09:53:07.838Z,97874.16
2019-06-20T09:55:38.517Z,97871.14
2019-06-20T09:58:28.186Z,97879.46
2019-06-20T10:00:58.750Z,97882.13
2019-06-20T10:03:48.944Z,97887.75
2019-06-20T10:06:20.814Z,97882.97
2019-06-20T10:08:54.348Z,97882.19
2019-06-20T10:11:24.710Z,97883.44
2019-06-20T10:13:56.074Z,97881.60
2019-06-20T10:16:26.382Z,97873.86
2019-06-20T10:18:56.935Z,97872.15
2019-06-20T10:21:27.219Z,97873.47
2019-06-20T10:23:57.857Z,97869.78
2019-06-20T10:26:29.002Z,97864.61
2019-06-20T10:28:59.603Z,97863.24
2019-06-20T10:31:31.259Z,97859.70
2019-06-20T10:34:23.662Z,97857.80
2019-06-20T10:37:20.436Z,97849.76
2019-06-20T10:40:34.287Z,97853.36
2019-06-20T10:43:23.762Z,97856.98
2019-06-20T10:46:13.950Z,97802.50
2019-06-20T10:49:03.460Z,97849.64
2019-06-20T10:51:54.608Z,97852.73
2019-06-20T10:54:45.303Z,97852.00
2019-06-20T10:57:18.728Z,97850.85
2019-06-20T10:59:50.812Z,97857.16
2019-06-20T11:02:21.783Z,97856.11
2019-06-20T11:04:53.215Z,97861.79
2019-06-20T11:07:23.689Z,97856.92
2019-06-20T11:10:13.750Z,97863.05
2019-06-20T11:13:03.232Z,97866.05
2019-06-20T11:15:52.121Z,97859.81
2019-06-20T11:18:22.653Z,97857.94
2019-06-20T11:20:53.070Z,97872.92
2019-06-20T11:23:23.559Z,97860.16
2019-06-20T11:26:14.213Z,97867.73
2019-06-20T11:28:44.801Z,97854.45
2019-06-20T11:31:15.998Z,97863.22
2019-06-20T11:33:49.162Z,97867.25
2019-06-20T11:36:20.035Z,97869.70
2019-06-20T11:38:53.411Z,97873.53
2019-06-20T11:41:25.192Z,97872.97
2019-06-20T11:43:57.883Z,97871.58
2019-06-20T11:46:47.446Z,97872.99
2019-06-20T11:49:29.309Z,97877.77
2019-06-20T11:52:09.424Z,97883.10
2019-06-20T11:55:00.998Z,97891.16
2019-06-20T11:57:31.867Z,97881.08
2019-06-20T12:00:02.413Z,97879.97
2019-06-20T12:02:52.066Z,97883.78
2019-06-20T12:05:53.220Z,97894.69
2019-06-20T12:08:45.310Z,97882.83
2019-06-20T12:11:47.002Z,97891.48
2019-06-20T12:14:39.728Z,97891.36
2019-06-20T12:17:11.564Z,97884.75
2019-06-20T12:20:01.826Z,97881.67
2019-06-20T12:22:32.675Z,97876.55
2019-06-20T12:25:03.124Z,97874.16
2019-06-20T12:27:53.438Z,97869.88
2019-06-20T12:30:43.575Z,97871.15
2019-06-20T12:33:33.208Z,97787.88
2019-06-20T12:36:03.649Z,97873.09
2019-06-20T12:41:30.762Z,97859.02
2019-06-20T12:44:02.718Z,97863.40
2019-06-20T12:46:52.434Z,97863.03
2019-06-20T12:49:24.081Z,97865.88
2019-06-20T12:52:20.559Z,97863.90
2019-06-20T12:55:12.208Z,97865.23
2019-06-20T12:58:08.936Z,97861.45
2019-06-20T13:00:41.612Z,97864.48
2019-06-20T13:03:31.223Z,97855.53
2019-06-20T13:06:20.589Z,97835.73
2019-06-20T13:09:10.165Z,97850.45
2019-06-20T13:12:00.082Z,97842.89
2019-06-20T13:17:13.731Z,97851.52
2019-06-20T13:20:03.257Z,97849.98
2019-06-20T13:22:59.893Z,97844.73
2019-06-20T13:25:50.480Z,97850.17
2019-06-20T13:28:59.150Z,97860.91
2019-06-20T13:32:02.071Z,97758.05
2019-06-20T13:35:03.632Z,97749.88
2019-06-20T13:37:53.114Z,97864.59
2019-06-20T13:41:03.647Z,97788.44
2019-06-20T13:43:53.289Z,97859.11
2019-06-20T13:46:25.249Z,97851.80
2019-06-20T13:49:14.843Z,97841.40
2019-06-20T13:51:45.952Z,97840.34
2019-06-20T13:54:36.014Z,97840.50
2019-06-20T13:57:25.958Z,97835.65
2019-06-20T14:00:18.447Z,97842.66
2019-06-20T14:02:51.466Z,97843.40
2019-06-20T14:05:24.351Z,97846.12
2019-06-20T14:14:19.918Z,97848.50
2019-06-20T14:19:46.908Z,97854.50
2019-06-20T14:27:58.540Z,97850.55
2019-06-20T14:33:18.998Z,97852.97
2019-06-20T14:35:51.202Z,97859.02
2019-06-20T14:38:41.451Z,97845.70
2019-06-20T14:41:31.393Z,97842.55
2019-06-20T14:44:02.711Z,97838.94
2019-06-20T14:46:33.165Z,97845.50
2019-06-20T14:52:07.205Z,97844.16
2019-06-20T14:54:38.534Z,97844.92
2019-06-20T15:00:24.605Z,97841.84
2019-06-20T15:03:33.622Z,97839.66
2019-06-20T15:09:04.857Z,97831.35
2019-06-20T15:14:23.080Z,97827.51
2019-06-20T15:17:03.812Z,97836.98
2019-06-20T15:19:56.594Z,97833.19
2019-06-20T15:25:17.058Z,97765.51
2019-06-20T15:28:08.003Z,97844.13
2019-06-20T15:30:38.370Z,97837.72
2019-06-20T15:33:10.629Z,97832.35
2019-06-20T15:36:00.045Z,97831.88
2019-06-20T15:38:51.112Z,97820.66
2019-06-20T15:41:22.271Z,97821.98
2019-06-20T15:43:53.782Z,97821.90
2019-06-20T15:46:24.973Z,97824.83
2019-06-20T15:49:15.639Z,97821.76
2019-06-20T15:51:52.106Z,97820.94
2019-06-20T15:54:24.559Z,97824.98
2019-06-20T15:56:55.043Z,97820.18
2019-06-20T15:59:25.882Z,97822.80
2019-06-20T16:02:15.484Z,97823.00
2019-06-20T16:05:05.509Z,97829.91
2019-06-20T16:07:55.658Z,97831.18
2019-06-20T16:10:46.850Z,97835.05
2019-06-20T16:13:17.432Z,97836.11
2019-06-20T16:19:27.046Z,97839.39
2019-06-20T16:26:11.673Z,97844.52
2019-06-20T16:29:03.951Z,97837.66
2019-06-20T16:35:17.463Z,97840.94
2019-06-20T16:38:08.484Z,97842.43
2019-06-20T16:40:58.906Z,97846.62
2019-06-20T16:44:02.446Z,97846.90
2019-06-20T16:46:34.025Z,97847.94
2019-06-20T16:54:43.985Z,97853.84
2019-06-20T16:57:38.297Z,97856.16
2019-06-20T17:00:30.760Z,97855.05
2019-06-20T17:03:41.642Z,97861.23
2019-06-20T17:15:00.206Z,97875.91
2019-06-20T17:21:01.880Z,97875.89
2019-06-20T17:23:32.695Z,97884.98
2019-06-20T17:29:21.128Z,97889.00
2019-06-20T17:31:57.315Z,97758.92
2019-06-20T17:34:26.511Z,97893.11
2019-06-20T17:36:58.597Z,97890.52
2019-06-20T17:39:31.957Z,97898.27
2019-06-20T17:42:03.691Z,97896.38
2019-06-20T17:44:34.197Z,97900.74
2019-06-20T17:49:47.621Z,97895.69
2019-06-20T17:52:17.966Z,97897.55
2019-06-20T17:58:24.004Z,97895.59
2019-06-20T18:01:13.680Z,97901.81
2019-06-20T18:04:13.349Z,97902.66
2019-06-20T18:06:54.789Z,97901.13
2019-06-20T18:09:44.208Z,97787.70
2019-06-20T18:12:17.117Z,97908.42
2019-06-20T18:14:48.915Z,97908.67
2019-06-20T18:17:20.249Z,97911.48
2019-06-20T18:19:51.252Z,97914.08
2019-06-20T18:22:21.716Z,97912.00
2019-06-20T18:24:52.444Z,97915.76
2019-06-20T18:27:41.918Z,97919.27
2019-06-20T18:30:54.298Z,97844.39
2019-06-20T18:33:25.772Z,97922.52
2019-06-20T18:36:15.059Z,97919.32
2019-06-20T18:39:07.942Z,97926.83
2019-06-20T18:41:57.650Z,97924.58
2019-06-20T18:44:49.022Z,97928.97
2019-06-20T18:47:39.848Z,97930.50
2019-06-20T18:50:21.923Z,97925.73
2019-06-20T18:53:03.972Z,97933.93
2019-06-20T18:55:46.328Z,97936.45
2019-06-20T18:58:28.812Z,97948.45
2019-06-20T19:01:10.234Z,97939.31
2019-06-20T19:03:52.508Z,97941.44
2019-06-20T19:06:35.595Z,97951.41
2019-06-20T19:09:10.548Z,97948.08
2019-06-20T19:11:32.822Z,97950.09
2019-06-20T19:14:07.586Z,97948.75
2019-06-20T19:16:39.090Z,97951.73
2019-06-20T19:22:31.764Z,97954.03
2019-06-20T19:25:21.258Z,97952.03
2019-06-20T19:27:52.035Z,97954.02
2019-06-20T19:31:00.775Z,97958.16
2019-06-20T19:33:31.678Z,97968.30
2019-06-20T19:36:02.030Z,97970.38
2019-06-20T19:38:44.888Z,97980.02
2019-06-20T19:41:15.498Z,97984.81
2019-06-20T19:47:07.915Z,97985.97
2019-06-20T19:49:38.347Z,97989.78
2019-06-20T19:52:10.278Z,97985.59
2019-06-20T19:54:48.253Z,97986.09
2019-06-20T19:57:20.588Z,97998.02
2019-06-20T20:02:55.373Z,98000.14
2019-06-20T20:05:45.331Z,98004.63
2019-06-20T20:08:18.287Z,98003.12
2019-06-20T20:10:50.683Z,98000.25
2019-06-20T20:13:40.803Z,98014.55
2019-06-20T20:16:13.056Z,98007.56
2019-06-20T20:18:54.322Z,98007.87
2019-06-20T20:24:10.260Z,98013.55
2019-06-20T20:26:40.548Z,98020.98
2019-06-20T20:29:30.361Z,98020.31
2019-06-20T20:32:21.619Z,98025.28
2019-06-20T20:38:30.962Z,98034.47
2019-06-20T20:41:20.313Z,97942.86
2019-06-20T20:44:03.135Z,98049.72
2019-06-20T20:46:35.267Z,98046.61
2019-06-20T20:49:33.463Z,98056.68
2019-06-20T20:52:16.699Z,98049.13
2019-06-20T20:55:14.724Z,98055.95
2019-06-20T20:57:47.274Z,98058.82
2019-06-20T21:00:25.583Z,98059.83
2019-06-20T21:03:15.071Z,98058.52
2019-06-20T21:05:51.377Z,98063.95
2019-06-20T21:08:46.125Z,98066.67
2019-06-20T21:11:20.126Z,98063.29
2019-06-20T21:13:58.951Z,98078.23
2019-06-20T21:16:29.551Z,98086.30
2019-06-20T21:18:59.962Z,98091.06
2019-06-20T21:21:52.115Z,98089.66
2019-06-20T21:24:50.487Z,98095.08
2019-06-20T21:33:44.227Z,98104.36
2019-06-20T21:36:34.509Z,98102.36
2019-06-20T21:39:39.548Z,98106.62
2019-06-20T21:42:28.935Z,98109.77
2019-06-20T21:45:00.338Z,98111.39
2019-06-20T21:47:49.591Z,98112.55
2019-06-20T21:50:38.889Z,98111.33
2019-06-20T21:53:12.669Z,98114.82
2019-06-20T21:56:02.438Z,98112.66
2019-06-20T21:58:52.551Z,98116.98
2019-06-20T22:01:23.718Z,98115.02
2019-06-20T22:03:54.379Z,98115.02
2019-06-20T22:06:24.786Z,98119.37
2019-06-20T22:09:14.135Z,98124.06
2019-06-20T22:12:13.973Z,98119.72
2019-06-20T22:15:03.750Z,97995.52
2019-06-20T22:17:48.242Z,98121.41
2019-06-20T22:20:10.998Z,98123.03
2019-06-20T22:23:01.552Z,98119.67
2019-06-20T22:25:37.066Z,98128.33
2019-06-20T22:28:27.937Z,98134.31
2019-06-20T22:33:55.806Z,98135.36
2019-06-20T22:36:39.163Z,98016.21
2019-06-20T22:38:59.202Z,98125.40
2019-06-20T22:41:48.779Z,98126.86
2019-06-20T22:44:19.122Z,98124.30
2019-06-20T22:46:49.632Z,98126.76
2019-06-20T22:49:20.752Z,98125.53
2019-06-20T22:52:01.140Z,98130.48
2019-06-20T22:54:31.738Z,98130.48
2019-06-20T22:57:21.465Z,98136.78
2019-06-20T23:00:11.838Z,98137.06
2019-06-20T23:02:42.471Z,98140.40
2019-06-20T23:05:31.701Z,98144.44
2019-06-20T23:08:21.040Z,98138.42
2019-06-20T23:11:10.683Z,98148.09
2019-06-20T23:13:41.055Z,98148.42
2019-06-20T23:16:23.294Z,98150.45
2019-06-20T23:19:02.977Z,98153.19
2019-06-20T23:21:33.267Z,98162.33
2019-06-20T23:26:53.377Z,98156.21
2019-06-20T23:29:23.675Z,98163.80
2019-06-20T23:31:54.730Z,98157.46
2019-06-20T23:34:44.177Z,98152.68
2019-06-20T23:37:33.487Z,98153.94
2019-06-20T23:40:04.107Z,98155.47
2019-06-20T23:42:34.719Z,98157.44
2019-06-20T23:48:21.318Z,98154.47
2019-06-20T23:51:24.728Z,98159.84
2019-06-20T23:53:53.083Z,98164.09
2019-06-20T23:56:23.421Z,98159.01
2019-06-20T23:59:12.708Z,98156.00
